This is the latest recevied weather packets stored in our database for station/object CE4ERM-13. If no packets are shown the sender has not sent any weather packets the latest 10 day(s).
| Time | Temp. | Humidity | Pressure | Rain* | Wind** | Luminosity | Snow |
|---|---|---|---|---|---|---|---|
| 1777702490 | 17.22° C | 45% | 1020.4 hPa | - | - | - | - |
| 1777702077 | 17.78° C | 47% | 1021.8 hPa | - | - | - | - |
| 1777701889 | 17.22° C | 45% | 1024.4 hPa | - | - | - | - |
| 1777701476 | 18.33° C | 47% | 1020.3 hPa | - | - | - | - |
| 1777701289 | 17.22° C | 45% | 1020.9 hPa | - | - | - | - |
| 1777700876 | 18.33° C | 47% | 1021.2 hPa | - | - | - | - |
| 1777700688 | 17.22° C | 46% | 1021.6 hPa | - | - | - | - |
| 1777700275 | 18.33° C | 47% | 1021.7 hPa | - | - | - | - |
| 1777700089 | 17.78° C | 45% | 1022 hPa | - | - | - | - |
| 1777699675 | 18.33° C | 47% | 1021.1 hPa | - | - | - | - |
| 1777699489 | 17.78° C | 45% | 1020.7 hPa | - | - | - | - |
| 1777698888 | 17.78° C | 46% | 1021.8 hPa | - | - | - | - |
| 1777698474 | 18.89° C | 47% | 1020.9 hPa | - | - | - | - |
| 1777698446 | 17.78° C | 46% | 1022.7 hPa | - | - | - | - |
| 1777698287 | 17.78° C | 46% | 1022.7 hPa | - | - | - | - |
| 1777697873 | 18.89° C | 48% | 1021.4 hPa | - | - | - | - |
| 1777697687 | 17.78° C | 45% | 1023.8 hPa | - | - | - | - |
| 1777697273 | 18.89° C | 48% | 1021.8 hPa | - | - | - | - |
| 1777697086 | 18.33° C | 46% | 1021.3 hPa | - | - | - | - |
| 1777696673 | 18.89° C | 48% | 1021.1 hPa | - | - | - | - |
| 1777696074 | 18.89° C | 48% | 1021 hPa | - | - | - | - |
| 1777695886 | 18.33° C | 46% | 1022.7 hPa | - | - | - | - |
| 1777695473 | 18.89° C | 47% | 1021.8 hPa | - | - | - | - |
| 1777695285 | 18.33° C | 46% | 1022.1 hPa | - | - | - | - |
| 1777694872 | 18.89° C | 48% | 1022.8 hPa | - | - | - | - |
* Rain since midnight (hover to see other rain measurements)
** Current wind speed in m/s (hover to see current wind gust speed)